sensor_id;sensor_type;location;lat;lon;timestamp;P1;durP1;ratioP1;P2;durP2;ratioP2
78923;SDS011;75282;41.394;23.212;2024-02-26T00:01:02;17.92;;;12.02;;
78923;SDS011;75282;41.394;23.212;2024-02-26T00:03:28;20.33;;;12.85;;
78923;SDS011;75282;41.394;23.212;2024-02-26T00:05:53;22.02;;;13.52;;
78923;SDS011;75282;41.394;23.212;2024-02-26T00:08:19;20.90;;;12.48;;
78923;SDS011;75282;41.394;23.212;2024-02-26T00:10:44;26.80;;;15.70;;
78923;SDS011;75282;41.394;23.212;2024-02-26T00:13:09;26.60;;;14.90;;
78923;SDS011;75282;41.394;23.212;2024-02-26T00:15:35;27.73;;;15.80;;
78923;SDS011;75282;41.394;23.212;2024-02-26T00:18:00;27.07;;;13.93;;
78923;SDS011;75282;41.394;23.212;2024-02-26T00:20:26;20.60;;;13.18;;
78923;SDS011;75282;41.394;23.212;2024-02-26T00:22:51;21.38;;;15.05;;
78923;SDS011;75282;41.394;23.212;2024-02-26T00:25:17;20.35;;;13.48;;
78923;SDS011;75282;41.394;23.212;2024-02-26T00:27:42;21.90;;;13.65;;
78923;SDS011;75282;41.394;23.212;2024-02-26T00:30:09;24.83;;;15.88;;
78923;SDS011;75282;41.394;23.212;2024-02-26T00:32:35;25.00;;;15.35;;
78923;SDS011;75282;41.394;23.212;2024-02-26T00:35:00;22.10;;;13.35;;
78923;SDS011;75282;41.394;23.212;2024-02-26T00:37:25;26.27;;;14.43;;
78923;SDS011;75282;41.394;23.212;2024-02-26T00:39:51;23.53;;;15.97;;
78923;SDS011;75282;41.394;23.212;2024-02-26T00:42:18;21.88;;;14.48;;
78923;SDS011;75282;41.394;23.212;2024-02-26T00:44:43;25.20;;;15.50;;
78923;SDS011;75282;41.394;23.212;2024-02-26T00:47:08;27.38;;;17.45;;
78923;SDS011;75282;41.394;23.212;2024-02-26T00:49:34;28.83;;;16.27;;
78923;SDS011;75282;41.394;23.212;2024-02-26T00:51:59;24.95;;;14.40;;
78923;SDS011;75282;41.394;23.212;2024-02-26T00:54:25;30.93;;;16.77;;
78923;SDS011;75282;41.394;23.212;2024-02-26T00:56:50;22.33;;;15.32;;
78923;SDS011;75282;41.394;23.212;2024-02-26T00:59:15;17.70;;;11.10;;
78923;SDS011;75282;41.394;23.212;2024-02-26T01:01:41;21.48;;;11.38;;
78923;SDS011;75282;41.394;23.212;2024-02-26T01:04:06;17.90;;;11.23;;
78923;SDS011;75282;41.394;23.212;2024-02-26T01:06:31;17.30;;;11.47;;
78923;SDS011;75282;41.394;23.212;2024-02-26T01:08:57;18.77;;;10.63;;
78923;SDS011;75282;41.394;23.212;2024-02-26T01:11:22;22.03;;;11.13;;
78923;SDS011;75282;41.394;23.212;2024-02-26T01:13:47;46.05;;;22.17;;
78923;SDS011;75282;41.394;23.212;2024-02-26T01:16:13;32.80;;;17.33;;
78923;SDS011;75282;41.394;23.212;2024-02-26T01:18:38;30.77;;;16.03;;
78923;SDS011;75282;41.394;23.212;2024-02-26T01:21:04;22.45;;;14.07;;
78923;SDS011;75282;41.394;23.212;2024-02-26T01:23:33;18.95;;;11.55;;
78923;SDS011;75282;41.394;23.212;2024-02-26T01:25:59;14.00;;;8.75;;
78923;SDS011;75282;41.394;23.212;2024-02-26T01:28:24;14.37;;;7.93;;
78923;SDS011;75282;41.394;23.212;2024-02-26T01:30:49;12.23;;;7.77;;
78923;SDS011;75282;41.394;23.212;2024-02-26T01:33:14;12.13;;;7.63;;
78923;SDS011;75282;41.394;23.212;2024-02-26T01:35:40;11.60;;;7.60;;
78923;SDS011;75282;41.394;23.212;2024-02-26T01:38:05;12.18;;;7.45;;
78923;SDS011;75282;41.394;23.212;2024-02-26T01:40:31;14.00;;;6.75;;
78923;SDS011;75282;41.394;23.212;2024-02-26T01:42:56;11.23;;;7.35;;
78923;SDS011;75282;41.394;23.212;2024-02-26T01:45:21;10.70;;;7.10;;
78923;SDS011;75282;41.394;23.212;2024-02-26T01:47:52;14.73;;;7.88;;
78923;SDS011;75282;41.394;23.212;2024-02-26T01:50:18;11.25;;;7.53;;
78923;SDS011;75282;41.394;23.212;2024-02-26T01:52:44;17.45;;;7.90;;
78923;SDS011;75282;41.394;23.212;2024-02-26T01:55:11;12.18;;;7.80;;
78923;SDS011;75282;41.394;23.212;2024-02-26T01:57:39;15.43;;;8.15;;
78923;SDS011;75282;41.394;23.212;2024-02-26T02:00:04;13.65;;;7.05;;
78923;SDS011;75282;41.394;23.212;2024-02-26T02:02:31;10.38;;;6.88;;
78923;SDS011;75282;41.394;23.212;2024-02-26T02:04:56;10.25;;;6.65;;
78923;SDS011;75282;41.394;23.212;2024-02-26T02:07:21;11.25;;;6.07;;
78923;SDS011;75282;41.394;23.212;2024-02-26T02:09:48;10.02;;;6.03;;
78923;SDS011;75282;41.394;23.212;2024-02-26T02:12:13;11.55;;;7.28;;
78923;SDS011;75282;41.394;23.212;2024-02-26T02:14:39;13.60;;;6.72;;
78923;SDS011;75282;41.394;23.212;2024-02-26T02:17:04;7.87;;;6.20;;
78923;SDS011;75282;41.394;23.212;2024-02-26T02:19:30;7.93;;;5.15;;
78923;SDS011;75282;41.394;23.212;2024-02-26T02:21:55;8.73;;;4.97;;
78923;SDS011;75282;41.394;23.212;2024-02-26T02:24:21;14.90;;;4.77;;
78923;SDS011;75282;41.394;23.212;2024-02-26T02:26:46;10.27;;;4.90;;
78923;SDS011;75282;41.394;23.212;2024-02-26T02:29:11;7.25;;;4.35;;
78923;SDS011;75282;41.394;23.212;2024-02-26T02:31:37;7.28;;;4.30;;
78923;SDS011;75282;41.394;23.212;2024-02-26T02:34:02;6.03;;;4.25;;
78923;SDS011;75282;41.394;23.212;2024-02-26T02:36:28;6.45;;;3.42;;
78923;SDS011;75282;41.394;23.212;2024-02-26T02:38:53;6.47;;;3.83;;
78923;SDS011;75282;41.394;23.212;2024-02-26T02:41:19;8.00;;;3.60;;
78923;SDS011;75282;41.394;23.212;2024-02-26T02:43:44;9.00;;;3.97;;
78923;SDS011;75282;41.394;23.212;2024-02-26T02:46:10;6.05;;;4.00;;
78923;SDS011;75282;41.394;23.212;2024-02-26T02:48:36;6.28;;;3.63;;
78923;SDS011;75282;41.394;23.212;2024-02-26T02:51:02;4.38;;;3.30;;
78923;SDS011;75282;41.394;23.212;2024-02-26T02:53:28;4.82;;;3.17;;
78923;SDS011;75282;41.394;23.212;2024-02-26T02:55:53;13.30;;;5.60;;
78923;SDS011;75282;41.394;23.212;2024-02-26T02:58:18;10.60;;;4.83;;
78923;SDS011;75282;41.394;23.212;2024-02-26T03:00:44;6.27;;;3.47;;
78923;SDS011;75282;41.394;23.212;2024-02-26T03:03:09;6.35;;;3.35;;
78923;SDS011;75282;41.394;23.212;2024-02-26T03:05:34;7.33;;;3.23;;
78923;SDS011;75282;41.394;23.212;2024-02-26T03:08:00;6.53;;;3.23;;
78923;SDS011;75282;41.394;23.212;2024-02-26T03:10:25;4.70;;;3.20;;
78923;SDS011;75282;41.394;23.212;2024-02-26T03:12:50;6.35;;;3.40;;
78923;SDS011;75282;41.394;23.212;2024-02-26T03:15:16;7.57;;;3.47;;
78923;SDS011;75282;41.394;23.212;2024-02-26T03:17:41;7.68;;;3.70;;
78923;SDS011;75282;41.394;23.212;2024-02-26T03:20:07;6.10;;;3.63;;
78923;SDS011;75282;41.394;23.212;2024-02-26T03:22:34;8.13;;;3.95;;
78923;SDS011;75282;41.394;23.212;2024-02-26T03:25:00;7.03;;;4.10;;
78923;SDS011;75282;41.394;23.212;2024-02-26T03:27:25;6.53;;;3.38;;
78923;SDS011;75282;41.394;23.212;2024-02-26T03:29:50;7.33;;;3.43;;
78923;SDS011;75282;41.394;23.212;2024-02-26T03:32:17;7.35;;;3.33;;
78923;SDS011;75282;41.394;23.212;2024-02-26T03:34:43;6.13;;;3.97;;
78923;SDS011;75282;41.394;23.212;2024-02-26T03:37:08;5.70;;;3.73;;
78923;SDS011;75282;41.394;23.212;2024-02-26T03:39:35;7.43;;;4.15;;
78923;SDS011;75282;41.394;23.212;2024-02-26T03:42:01;10.82;;;6.32;;
78923;SDS011;75282;41.394;23.212;2024-02-26T03:44:27;9.57;;;5.10;;
78923;SDS011;75282;41.394;23.212;2024-02-26T03:46:52;7.43;;;4.00;;
78923;SDS011;75282;41.394;23.212;2024-02-26T03:49:17;7.57;;;4.57;;
78923;SDS011;75282;41.394;23.212;2024-02-26T03:51:43;7.10;;;4.57;;
78923;SDS011;75282;41.394;23.212;2024-02-26T03:54:08;9.30;;;4.37;;
78923;SDS011;75282;41.394;23.212;2024-02-26T03:56:33;8.27;;;4.45;;
78923;SDS011;75282;41.394;23.212;2024-02-26T03:58:59;8.40;;;4.80;;
78923;SDS011;75282;41.394;23.212;2024-02-26T04:01:26;7.43;;;5.20;;
78923;SDS011;75282;41.394;23.212;2024-02-26T04:03:52;8.00;;;5.00;;
78923;SDS011;75282;41.394;23.212;2024-02-26T04:06:17;6.47;;;5.40;;
78923;SDS011;75282;41.394;23.212;2024-02-26T04:08:45;7.82;;;4.97;;
78923;SDS011;75282;41.394;23.212;2024-02-26T04:11:11;8.40;;;5.00;;
78923;SDS011;75282;41.394;23.212;2024-02-26T04:13:36;12.18;;;4.55;;
78923;SDS011;75282;41.394;23.212;2024-02-26T04:16:05;10.38;;;5.88;;
78923;SDS011;75282;41.394;23.212;2024-02-26T04:18:31;9.57;;;6.30;;
78923;SDS011;75282;41.394;23.212;2024-02-26T04:20:57;10.20;;;5.90;;
78923;SDS011;75282;41.394;23.212;2024-02-26T04:23:22;9.60;;;6.82;;
78923;SDS011;75282;41.394;23.212;2024-02-26T04:25:48;14.07;;;7.10;;
78923;SDS011;75282;41.394;23.212;2024-02-26T04:28:13;11.88;;;7.88;;
78923;SDS011;75282;41.394;23.212;2024-02-26T04:30:39;15.65;;;9.75;;
78923;SDS011;75282;41.394;23.212;2024-02-26T04:33:04;15.18;;;10.30;;
78923;SDS011;75282;41.394;23.212;2024-02-26T04:35:30;23.98;;;13.23;;
78923;SDS011;75282;41.394;23.212;2024-02-26T04:37:55;16.58;;;10.15;;
78923;SDS011;75282;41.394;23.212;2024-02-26T04:40:21;16.25;;;10.77;;
78923;SDS011;75282;41.394;23.212;2024-02-26T04:42:46;20.73;;;12.10;;
78923;SDS011;75282;41.394;23.212;2024-02-26T04:45:12;23.98;;;14.30;;
78923;SDS011;75282;41.394;23.212;2024-02-26T04:47:37;24.08;;;14.27;;
78923;SDS011;75282;41.394;23.212;2024-02-26T04:50:03;27.27;;;14.70;;
78923;SDS011;75282;41.394;23.212;2024-02-26T04:52:29;22.17;;;12.15;;
78923;SDS011;75282;41.394;23.212;2024-02-26T04:54:54;26.52;;;13.68;;
78923;SDS011;75282;41.394;23.212;2024-02-26T04:57:20;14.03;;;10.70;;
78923;SDS011;75282;41.394;23.212;2024-02-26T04:59:46;12.10;;;8.57;;
78923;SDS011;75282;41.394;23.212;2024-02-26T05:02:12;12.60;;;8.60;;
78923;SDS011;75282;41.394;23.212;2024-02-26T05:04:38;16.40;;;9.55;;
78923;SDS011;75282;41.394;23.212;2024-02-26T05:07:03;10.50;;;7.50;;
78923;SDS011;75282;41.394;23.212;2024-02-26T05:09:29;11.55;;;8.77;;
78923;SDS011;75282;41.394;23.212;2024-02-26T05:11:54;19.83;;;11.57;;
78923;SDS011;75282;41.394;23.212;2024-02-26T05:14:19;14.20;;;9.87;;
78923;SDS011;75282;41.394;23.212;2024-02-26T05:16:45;16.05;;;9.93;;
78923;SDS011;75282;41.394;23.212;2024-02-26T05:19:10;15.00;;;9.63;;
78923;SDS011;75282;41.394;23.212;2024-02-26T05:21:36;10.68;;;8.40;;
78923;SDS011;75282;41.394;23.212;2024-02-26T05:24:01;17.67;;;9.77;;
78923;SDS011;75282;41.394;23.212;2024-02-26T05:26:27;17.10;;;9.38;;
78923;SDS011;75282;41.394;23.212;2024-02-26T05:28:52;18.90;;;11.67;;
78923;SDS011;75282;41.394;23.212;2024-02-26T05:31:18;14.77;;;10.25;;
78923;SDS011;75282;41.394;23.212;2024-02-26T05:33:43;17.80;;;12.40;;
78923;SDS011;75282;41.394;23.212;2024-02-26T05:36:09;23.60;;;15.57;;
78923;SDS011;75282;41.394;23.212;2024-02-26T05:38:34;27.83;;;16.40;;
78923;SDS011;75282;41.394;23.212;2024-02-26T05:41:00;21.65;;;13.38;;
78923;SDS011;75282;41.394;23.212;2024-02-26T05:43:26;27.05;;;16.05;;
78923;SDS011;75282;41.394;23.212;2024-02-26T05:45:52;31.50;;;22.08;;
78923;SDS011;75282;41.394;23.212;2024-02-26T05:48:17;30.17;;;18.65;;
78923;SDS011;75282;41.394;23.212;2024-02-26T05:50:44;27.92;;;15.43;;
78923;SDS011;75282;41.394;23.212;2024-02-26T05:53:12;18.67;;;12.65;;
78923;SDS011;75282;41.394;23.212;2024-02-26T05:55:37;23.05;;;12.48;;
78923;SDS011;75282;41.394;23.212;2024-02-26T05:58:03;53.65;;;38.78;;
78923;SDS011;75282;41.394;23.212;2024-02-26T06:00:29;33.83;;;26.27;;
78923;SDS011;75282;41.394;23.212;2024-02-26T06:02:54;35.47;;;27.83;;
78923;SDS011;75282;41.394;23.212;2024-02-26T06:05:19;28.87;;;17.23;;
78923;SDS011;75282;41.394;23.212;2024-02-26T06:07:45;20.20;;;12.60;;
78923;SDS011;75282;41.394;23.212;2024-02-26T06:10:10;19.67;;;11.75;;
78923;SDS011;75282;41.394;23.212;2024-02-26T06:12:36;21.02;;;13.55;;
78923;SDS011;75282;41.394;23.212;2024-02-26T06:15:01;21.38;;;12.25;;
78923;SDS011;75282;41.394;23.212;2024-02-26T06:17:27;18.75;;;11.45;;
78923;SDS011;75282;41.394;23.212;2024-02-26T06:19:53;20.17;;;13.20;;
78923;SDS011;75282;41.394;23.212;2024-02-26T06:22:19;23.90;;;13.75;;
78923;SDS011;75282;41.394;23.212;2024-02-26T06:24:44;22.45;;;15.00;;
78923;SDS011;75282;41.394;23.212;2024-02-26T06:27:09;18.58;;;11.75;;
78923;SDS011;75282;41.394;23.212;2024-02-26T06:29:35;19.10;;;12.33;;
78923;SDS011;75282;41.394;23.212;2024-02-26T06:32:00;23.87;;;14.17;;
78923;SDS011;75282;41.394;23.212;2024-02-26T06:34:25;68.90;;;37.93;;
78923;SDS011;75282;41.394;23.212;2024-02-26T06:36:51;59.60;;;33.47;;
78923;SDS011;75282;41.394;23.212;2024-02-26T06:39:16;57.72;;;34.10;;
78923;SDS011;75282;41.394;23.212;2024-02-26T06:41:42;56.20;;;32.58;;
78923;SDS011;75282;41.394;23.212;2024-02-26T06:44:08;52.50;;;29.55;;
78923;SDS011;75282;41.394;23.212;2024-02-26T06:46:33;56.15;;;28.17;;
78923;SDS011;75282;41.394;23.212;2024-02-26T06:48:59;44.73;;;24.07;;
78923;SDS011;75282;41.394;23.212;2024-02-26T06:51:24;38.27;;;21.20;;
78923;SDS011;75282;41.394;23.212;2024-02-26T06:53:49;39.63;;;24.27;;
78923;SDS011;75282;41.394;23.212;2024-02-26T06:56:15;42.38;;;25.42;;
78923;SDS011;75282;41.394;23.212;2024-02-26T06:58:40;40.93;;;25.90;;
78923;SDS011;75282;41.394;23.212;2024-02-26T07:01:05;45.70;;;31.93;;
78923;SDS011;75282;41.394;23.212;2024-02-26T07:03:33;53.17;;;33.45;;
78923;SDS011;75282;41.394;23.212;2024-02-26T07:05:58;61.72;;;40.90;;
78923;SDS011;75282;41.394;23.212;2024-02-26T07:08:24;65.90;;;42.87;;
78923;SDS011;75282;41.394;23.212;2024-02-26T07:10:49;81.17;;;51.13;;
78923;SDS011;75282;41.394;23.212;2024-02-26T07:13:14;84.38;;;54.47;;
78923;SDS011;75282;41.394;23.212;2024-02-26T07:15:40;91.33;;;58.93;;
78923;SDS011;75282;41.394;23.212;2024-02-26T07:18:05;79.23;;;52.17;;
78923;SDS011;75282;41.394;23.212;2024-02-26T07:20:31;77.13;;;50.80;;
78923;SDS011;75282;41.394;23.212;2024-02-26T07:22:56;73.63;;;46.10;;
78923;SDS011;75282;41.394;23.212;2024-02-26T07:25:22;76.72;;;47.03;;
78923;SDS011;75282;41.394;23.212;2024-02-26T07:27:49;77.20;;;48.28;;
78923;SDS011;75282;41.394;23.212;2024-02-26T07:30:15;73.97;;;47.40;;
78923;SDS011;75282;41.394;23.212;2024-02-26T07:32:41;69.53;;;43.88;;
78923;SDS011;75282;41.394;23.212;2024-02-26T07:35:06;68.85;;;39.28;;
78923;SDS011;75282;41.394;23.212;2024-02-26T07:37:32;63.60;;;38.30;;
78923;SDS011;75282;41.394;23.212;2024-02-26T07:39:57;64.40;;;39.17;;
78923;SDS011;75282;41.394;23.212;2024-02-26T07:42:23;53.63;;;31.88;;
78923;SDS011;75282;41.394;23.212;2024-02-26T07:44:48;39.20;;;24.85;;
78923;SDS011;75282;41.394;23.212;2024-02-26T07:47:13;40.47;;;24.08;;
78923;SDS011;75282;41.394;23.212;2024-02-26T07:49:39;47.13;;;28.53;;
78923;SDS011;75282;41.394;23.212;2024-02-26T07:52:05;36.47;;;18.45;;
78923;SDS011;75282;41.394;23.212;2024-02-26T07:54:30;33.97;;;19.60;;
78923;SDS011;75282;41.394;23.212;2024-02-26T07:56:55;33.07;;;20.77;;
78923;SDS011;75282;41.394;23.212;2024-02-26T07:59:21;28.83;;;18.10;;
78923;SDS011;75282;41.394;23.212;2024-02-26T08:01:52;25.90;;;15.37;;
78923;SDS011;75282;41.394;23.212;2024-02-26T08:04:18;20.15;;;12.65;;
78923;SDS011;75282;41.394;23.212;2024-02-26T08:06:43;18.80;;;12.43;;
78923;SDS011;75282;41.394;23.212;2024-02-26T08:09:09;23.13;;;14.70;;
78923;SDS011;75282;41.394;23.212;2024-02-26T08:11:34;29.65;;;18.75;;
78923;SDS011;75282;41.394;23.212;2024-02-26T08:14:00;30.15;;;16.38;;
78923;SDS011;75282;41.394;23.212;2024-02-26T08:16:25;26.98;;;15.00;;
78923;SDS011;75282;41.394;23.212;2024-02-26T08:18:50;27.17;;;15.43;;
78923;SDS011;75282;41.394;23.212;2024-02-26T08:21:16;32.47;;;16.20;;
78923;SDS011;75282;41.394;23.212;2024-02-26T08:23:42;26.70;;;16.38;;
78923;SDS011;75282;41.394;23.212;2024-02-26T08:26:08;23.67;;;15.80;;
78923;SDS011;75282;41.394;23.212;2024-02-26T08:28:36;16.85;;;11.23;;
78923;SDS011;75282;41.394;23.212;2024-02-26T08:31:02;21.20;;;11.60;;
78923;SDS011;75282;41.394;23.212;2024-02-26T08:33:27;16.50;;;9.05;;
78923;SDS011;75282;41.394;23.212;2024-02-26T08:35:52;19.03;;;10.30;;
78923;SDS011;75282;41.394;23.212;2024-02-26T08:38:18;22.57;;;10.83;;
78923;SDS011;75282;41.394;23.212;2024-02-26T08:40:43;11.03;;;6.80;;
78923;SDS011;75282;41.394;23.212;2024-02-26T08:43:08;12.67;;;6.23;;
78923;SDS011;75282;41.394;23.212;2024-02-26T08:45:34;14.20;;;7.65;;
78923;SDS011;75282;41.394;23.212;2024-02-26T08:48:00;12.30;;;6.53;;
78923;SDS011;75282;41.394;23.212;2024-02-26T08:50:25;14.07;;;6.53;;
78923;SDS011;75282;41.394;23.212;2024-02-26T08:52:51;13.98;;;7.93;;
78923;SDS011;75282;41.394;23.212;2024-02-26T08:55:18;12.82;;;6.85;;
78923;SDS011;75282;41.394;23.212;2024-02-26T08:57:43;10.80;;;5.13;;
78923;SDS011;75282;41.394;23.212;2024-02-26T09:00:09;10.23;;;5.03;;
78923;SDS011;75282;41.394;23.212;2024-02-26T09:02:35;12.10;;;6.38;;
78923;SDS011;75282;41.394;23.212;2024-02-26T09:05:03;10.82;;;5.45;;
78923;SDS011;75282;41.394;23.212;2024-02-26T09:07:30;11.57;;;5.38;;
78923;SDS011;75282;41.394;23.212;2024-02-26T09:09:56;8.77;;;5.85;;
78923;SDS011;75282;41.394;23.212;2024-02-26T09:12:21;17.45;;;10.27;;
78923;SDS011;75282;41.394;23.212;2024-02-26T09:14:47;14.50;;;10.70;;
78923;SDS011;75282;41.394;23.212;2024-02-26T09:17:12;13.25;;;7.97;;
78923;SDS011;75282;41.394;23.212;2024-02-26T09:19:38;16.38;;;7.78;;
78923;SDS011;75282;41.394;23.212;2024-02-26T09:22:03;13.60;;;8.95;;
78923;SDS011;75282;41.394;23.212;2024-02-26T09:24:29;18.47;;;12.17;;
78923;SDS011;75282;41.394;23.212;2024-02-26T09:26:54;26.15;;;11.25;;
78923;SDS011;75282;41.394;23.212;2024-02-26T09:29:20;24.55;;;12.50;;
78923;SDS011;75282;41.394;23.212;2024-02-26T09:31:45;24.40;;;13.25;;
78923;SDS011;75282;41.394;23.212;2024-02-26T09:34:12;15.18;;;10.70;;
78923;SDS011;75282;41.394;23.212;2024-02-26T09:36:38;20.27;;;11.10;;
78923;SDS011;75282;41.394;23.212;2024-02-26T09:39:03;13.73;;;9.20;;
78923;SDS011;75282;41.394;23.212;2024-02-26T09:41:30;19.85;;;12.32;;
78923;SDS011;75282;41.394;23.212;2024-02-26T09:43:56;20.17;;;12.70;;
78923;SDS011;75282;41.394;23.212;2024-02-26T09:46:22;21.02;;;11.32;;
78923;SDS011;75282;41.394;23.212;2024-02-26T09:48:48;23.65;;;14.27;;
78923;SDS011;75282;41.394;23.212;2024-02-26T09:51:14;11.02;;;8.57;;
78923;SDS011;75282;41.394;23.212;2024-02-26T09:53:40;14.82;;;8.27;;
78923;SDS011;75282;41.394;23.212;2024-02-26T09:56:08;13.60;;;8.65;;
78923;SDS011;75282;41.394;23.212;2024-02-26T09:58:33;14.50;;;8.27;;
78923;SDS011;75282;41.394;23.212;2024-02-26T10:01:00;14.75;;;9.05;;
78923;SDS011;75282;41.394;23.212;2024-02-26T10:05:56;16.00;;;9.15;;
78923;SDS011;75282;41.394;23.212;2024-02-26T10:08:22;13.60;;;8.52;;
78923;SDS011;75282;41.394;23.212;2024-02-26T10:10:48;20.33;;;13.30;;
78923;SDS011;75282;41.394;23.212;2024-02-26T10:13:14;16.13;;;9.68;;
78923;SDS011;75282;41.394;23.212;2024-02-26T10:15:39;17.58;;;7.55;;
78923;SDS011;75282;41.394;23.212;2024-02-26T10:18:05;11.75;;;7.38;;
78923;SDS011;75282;41.394;23.212;2024-02-26T10:20:31;20.20;;;8.77;;
78923;SDS011;75282;41.394;23.212;2024-02-26T10:22:57;16.20;;;9.02;;
78923;SDS011;75282;41.394;23.212;2024-02-26T10:25:22;15.18;;;7.57;;
78923;SDS011;75282;41.394;23.212;2024-02-26T10:27:48;13.57;;;7.13;;
78923;SDS011;75282;41.394;23.212;2024-02-26T10:30:18;18.08;;;7.82;;
78923;SDS011;75282;41.394;23.212;2024-02-26T10:32:44;10.40;;;6.70;;
78923;SDS011;75282;41.394;23.212;2024-02-26T10:35:11;15.00;;;6.47;;
78923;SDS011;75282;41.394;23.212;2024-02-26T10:37:36;11.68;;;5.95;;
78923;SDS011;75282;41.394;23.212;2024-02-26T10:40:02;13.65;;;6.57;;
78923;SDS011;75282;41.394;23.212;2024-02-26T10:42:28;12.55;;;7.95;;
78923;SDS011;75282;41.394;23.212;2024-02-26T10:44:53;14.00;;;7.33;;
78923;SDS011;75282;41.394;23.212;2024-02-26T10:47:19;10.83;;;6.97;;
78923;SDS011;75282;41.394;23.212;2024-02-26T10:49:45;11.57;;;7.28;;
78923;SDS011;75282;41.394;23.212;2024-02-26T10:52:12;17.20;;;10.10;;
78923;SDS011;75282;41.394;23.212;2024-02-26T10:54:39;11.88;;;7.47;;
78923;SDS011;75282;41.394;23.212;2024-02-26T10:57:06;16.58;;;8.00;;
78923;SDS011;75282;41.394;23.212;2024-02-26T10:59:33;12.77;;;6.85;;
78923;SDS011;75282;41.394;23.212;2024-02-26T11:02:00;16.38;;;8.20;;
78923;SDS011;75282;41.394;23.212;2024-02-26T11:04:26;10.48;;;7.03;;
78923;SDS011;75282;41.394;23.212;2024-02-26T11:06:53;8.55;;;5.40;;
78923;SDS011;75282;41.394;23.212;2024-02-26T11:09:20;12.15;;;7.65;;
78923;SDS011;75282;41.394;23.212;2024-02-26T11:11:47;11.20;;;6.68;;
78923;SDS011;75282;41.394;23.212;2024-02-26T11:14:13;12.77;;;6.30;;
78923;SDS011;75282;41.394;23.212;2024-02-26T11:16:39;13.00;;;6.47;;
78923;SDS011;75282;41.394;23.212;2024-02-26T11:19:06;12.98;;;6.05;;
78923;SDS011;75282;41.394;23.212;2024-02-26T11:21:32;11.88;;;6.32;;
78923;SDS011;75282;41.394;23.212;2024-02-26T11:24:15;14.90;;;7.40;;
78923;SDS011;75282;41.394;23.212;2024-02-26T11:26:51;8.43;;;5.00;;
78923;SDS011;75282;41.394;23.212;2024-02-26T11:29:23;8.63;;;4.75;;
78923;SDS011;75282;41.394;23.212;2024-02-26T11:31:52;10.45;;;5.55;;
78923;SDS011;75282;41.394;23.212;2024-02-26T11:34:17;8.77;;;4.50;;
78923;SDS011;75282;41.394;23.212;2024-02-26T11:36:43;7.60;;;4.78;;
78923;SDS011;75282;41.394;23.212;2024-02-26T11:39:08;8.32;;;3.70;;
78923;SDS011;75282;41.394;23.212;2024-02-26T11:41:37;7.57;;;4.25;;
78923;SDS011;75282;41.394;23.212;2024-02-26T11:44:03;5.72;;;3.83;;
78923;SDS011;75282;41.394;23.212;2024-02-26T11:46:32;7.95;;;3.67;;
78923;SDS011;75282;41.394;23.212;2024-02-26T11:49:41;7.05;;;4.65;;
78923;SDS011;75282;41.394;23.212;2024-02-26T11:51:57;6.55;;;3.88;;
78923;SDS011;75282;41.394;23.212;2024-02-26T11:59:48;7.43;;;4.97;;
78923;SDS011;75282;41.394;23.212;2024-02-26T12:07:44;8.85;;;4.60;;
78923;SDS011;75282;41.394;23.212;2024-02-26T12:10:20;6.72;;;4.63;;
78923;SDS011;75282;41.394;23.212;2024-02-26T12:12:52;9.55;;;4.72;;
78923;SDS011;75282;41.394;23.212;2024-02-26T12:15:18;9.73;;;4.43;;
78923;SDS011;75282;41.394;23.212;2024-02-26T12:17:48;12.15;;;4.70;;
78923;SDS011;75282;41.394;23.212;2024-02-26T12:20:14;7.60;;;4.32;;
78923;SDS011;75282;41.394;23.212;2024-02-26T12:22:42;10.30;;;6.13;;
78923;SDS011;75282;41.394;23.212;2024-02-26T12:25:10;10.18;;;4.55;;
78923;SDS011;75282;41.394;23.212;2024-02-26T12:27:35;10.18;;;6.03;;
78923;SDS011;75282;41.394;23.212;2024-02-26T12:30:02;8.33;;;5.07;;
78923;SDS011;75282;41.394;23.212;2024-02-26T12:32:28;7.80;;;4.85;;
78923;SDS011;75282;41.394;23.212;2024-02-26T12:34:53;10.23;;;4.50;;
78923;SDS011;75282;41.394;23.212;2024-02-26T12:37:18;9.38;;;5.35;;
78923;SDS011;75282;41.394;23.212;2024-02-26T12:39:44;6.65;;;5.07;;
78923;SDS011;75282;41.394;23.212;2024-02-26T12:42:10;7.45;;;4.72;;
78923;SDS011;75282;41.394;23.212;2024-02-26T12:44:37;9.90;;;4.38;;
78923;SDS011;75282;41.394;23.212;2024-02-26T12:47:02;12.00;;;4.28;;
78923;SDS011;75282;41.394;23.212;2024-02-26T12:49:28;11.88;;;5.53;;
78923;SDS011;75282;41.394;23.212;2024-02-26T12:51:54;8.90;;;4.57;;
78923;SDS011;75282;41.394;23.212;2024-02-26T12:54:26;8.57;;;4.90;;
78923;SDS011;75282;41.394;23.212;2024-02-26T12:57:04;7.65;;;4.57;;
78923;SDS011;75282;41.394;23.212;2024-02-26T12:59:31;10.05;;;4.57;;
78923;SDS011;75282;41.394;23.212;2024-02-26T13:01:57;6.38;;;4.35;;
78923;SDS011;75282;41.394;23.212;2024-02-26T13:04:23;9.18;;;4.22;;
78923;SDS011;75282;41.394;23.212;2024-02-26T13:06:49;9.10;;;4.03;;
78923;SDS011;75282;41.394;23.212;2024-02-26T13:09:14;10.48;;;4.78;;
78923;SDS011;75282;41.394;23.212;2024-02-26T13:11:40;17.90;;;4.55;;
78923;SDS011;75282;41.394;23.212;2024-02-26T13:14:05;8.90;;;4.00;;
78923;SDS011;75282;41.394;23.212;2024-02-26T13:16:31;6.70;;;3.33;;
78923;SDS011;75282;41.394;23.212;2024-02-26T13:19:07;8.48;;;4.88;;
78923;SDS011;75282;41.394;23.212;2024-02-26T13:21:34;10.75;;;3.50;;
78923;SDS011;75282;41.394;23.212;2024-02-26T13:23:59;9.80;;;4.40;;
78923;SDS011;75282;41.394;23.212;2024-02-26T13:26:25;7.53;;;3.70;;
78923;SDS011;75282;41.394;23.212;2024-02-26T13:29:00;6.28;;;3.50;;
78923;SDS011;75282;41.394;23.212;2024-02-26T13:31:26;7.32;;;3.30;;
78923;SDS011;75282;41.394;23.212;2024-02-26T13:33:52;5.97;;;3.27;;
78923;SDS011;75282;41.394;23.212;2024-02-26T13:36:20;9.57;;;4.35;;
78923;SDS011;75282;41.394;23.212;2024-02-26T13:38:52;6.85;;;3.45;;
78923;SDS011;75282;41.394;23.212;2024-02-26T13:41:18;8.65;;;5.13;;
78923;SDS011;75282;41.394;23.212;2024-02-26T13:43:43;6.93;;;3.63;;
78923;SDS011;75282;41.394;23.212;2024-02-26T13:46:09;7.60;;;3.83;;
78923;SDS011;75282;41.394;23.212;2024-02-26T13:48:36;6.95;;;3.97;;
78923;SDS011;75282;41.394;23.212;2024-02-26T13:51:01;7.40;;;4.32;;
78923;SDS011;75282;41.394;23.212;2024-02-26T13:53:27;10.85;;;4.97;;
78923;SDS011;75282;41.394;23.212;2024-02-26T13:55:52;7.93;;;4.65;;
78923;SDS011;75282;41.394;23.212;2024-02-26T13:58:17;7.18;;;4.97;;
78923;SDS011;75282;41.394;23.212;2024-02-26T14:00:47;13.00;;;7.07;;
78923;SDS011;75282;41.394;23.212;2024-02-26T14:03:13;10.85;;;5.88;;
78923;SDS011;75282;41.394;23.212;2024-02-26T14:05:38;8.30;;;4.10;;
78923;SDS011;75282;41.394;23.212;2024-02-26T14:08:04;6.72;;;4.00;;
78923;SDS011;75282;41.394;23.212;2024-02-26T14:10:30;7.07;;;3.40;;
78923;SDS011;75282;41.394;23.212;2024-02-26T14:12:56;10.25;;;4.55;;
78923;SDS011;75282;41.394;23.212;2024-02-26T14:15:22;11.05;;;4.75;;
78923;SDS011;75282;41.394;23.212;2024-02-26T14:17:49;12.15;;;5.78;;
78923;SDS011;75282;41.394;23.212;2024-02-26T14:20:19;11.70;;;4.50;;
78923;SDS011;75282;41.394;23.212;2024-02-26T14:22:45;9.70;;;3.90;;
78923;SDS011;75282;41.394;23.212;2024-02-26T14:25:11;5.60;;;3.58;;
78923;SDS011;75282;41.394;23.212;2024-02-26T14:27:36;8.45;;;3.83;;